createdAt,value
2023-02-09T00:02:24.615Z,-2.30
2023-02-09T00:04:52.666Z,-2.30
2023-02-09T00:07:20.834Z,-2.30
2023-02-09T00:09:48.796Z,-2.30
2023-02-09T00:12:34.500Z,-2.30
2023-02-09T00:15:02.881Z,-2.30
2023-02-09T00:17:33.912Z,-2.40
2023-02-09T00:20:02.462Z,-2.30
2023-02-09T00:22:30.429Z,-2.40
2023-02-09T00:24:58.453Z,-2.30
2023-02-09T00:27:26.492Z,-2.40
2023-02-09T00:29:54.445Z,-2.40
2023-02-09T00:32:23.698Z,-2.40
2023-02-09T00:34:53.001Z,-2.40
2023-02-09T00:37:22.111Z,-2.40
2023-02-09T00:39:52.855Z,-2.40
2023-02-09T00:42:21.223Z,-2.40
2023-02-09T00:44:51.590Z,-2.40
2023-02-09T00:47:19.865Z,-2.40
2023-02-09T00:49:47.876Z,-2.40
2023-02-09T00:52:17.601Z,-2.40
2023-02-09T00:54:46.470Z,-2.40
2023-02-09T00:57:17.064Z,-2.30
2023-02-09T00:59:45.732Z,-2.40
2023-02-09T01:02:13.758Z,-2.40
2023-02-09T01:04:42.125Z,-2.40
2023-02-09T01:07:10.716Z,-2.40
2023-02-09T01:09:40.061Z,-2.40
2023-02-09T01:12:09.571Z,-2.40
2023-02-09T01:14:39.541Z,-2.40
2023-02-09T01:17:07.753Z,-2.40
2023-02-09T01:19:36.434Z,-2.40
2023-02-09T01:22:05.317Z,-2.50
2023-02-09T01:24:33.737Z,-2.40
2023-02-09T01:27:03.166Z,-2.40
2023-02-09T01:29:32.565Z,-2.40
2023-02-09T01:32:00.681Z,-2.40
2023-02-09T01:34:28.717Z,-2.40
2023-02-09T01:36:56.736Z,-2.40
2023-02-09T01:39:24.759Z,-2.40
2023-02-09T01:41:52.862Z,-2.40
2023-02-09T01:44:59.262Z,-2.50
2023-02-09T01:47:29.931Z,-2.50
2023-02-09T01:50:00.228Z,-2.50
2023-02-09T01:52:30.643Z,-2.50
2023-02-09T01:55:02.300Z,-2.50
2023-02-09T01:57:35.198Z,-2.60
2023-02-09T02:00:08.977Z,-2.60
2023-02-09T02:02:49.685Z,-2.60
2023-02-09T02:05:18.692Z,-2.60
2023-02-09T02:07:53.756Z,-2.60
2023-02-09T02:10:22.346Z,-2.70
2023-02-09T02:12:50.621Z,-2.70
2023-02-09T02:15:18.775Z,-2.70
2023-02-09T02:18:13.509Z,-2.70
2023-02-09T02:21:15.321Z,-2.80
2023-02-09T02:23:51.441Z,-2.80
2023-02-09T02:26:55.488Z,-2.80
2023-02-09T02:30:03.119Z,-2.80
2023-02-09T02:32:50.189Z,-2.80
2023-02-09T02:35:26.765Z,-2.80
2023-02-09T02:38:03.585Z,-2.80
2023-02-09T02:44:49.339Z,-2.90
2023-02-09T02:47:23.199Z,-2.90
2023-02-09T02:49:58.627Z,-2.90
2023-02-09T02:52:26.679Z,-2.90
2023-02-09T02:55:02.582Z,-2.80
2023-02-09T02:57:34.647Z,-2.90
2023-02-09T03:00:07.542Z,-2.90
2023-02-09T03:02:40.238Z,-2.90
2023-02-09T03:05:10.771Z,-3.00
2023-02-09T03:07:38.854Z,-2.90
2023-02-09T03:10:29.492Z,-2.90
2023-02-09T03:13:08.017Z,-2.90
2023-02-09T03:15:49.570Z,-2.90
2023-02-09T03:18:26.802Z,-2.90
2023-02-09T03:20:59.001Z,-2.90
2023-02-09T03:23:34.594Z,-2.90
2023-02-09T03:26:08.453Z,-2.90
2023-02-09T03:28:39.323Z,-2.90
2023-02-09T03:31:08.735Z,-2.90
2023-02-09T03:33:39.378Z,-2.90
2023-02-09T03:36:15.250Z,-2.90
2023-02-09T03:38:43.600Z,-2.90
2023-02-09T03:41:12.604Z,-2.90
2023-02-09T03:43:58.563Z,-3.00
2023-02-09T03:46:27.354Z,-2.90
2023-02-09T03:48:55.361Z,-2.90
2023-02-09T03:51:24.935Z,-2.90
2023-02-09T03:53:52.882Z,-2.90
2023-02-09T03:56:24.850Z,-3.00
2023-02-09T03:58:53.254Z,-3.10
2023-02-09T04:01:21.254Z,-3.20
2023-02-09T04:03:49.882Z,-3.20
2023-02-09T04:06:17.880Z,-3.30
2023-02-09T04:08:47.935Z,-3.30
2023-02-09T04:11:15.945Z,-3.40
2023-02-09T04:13:44.074Z,-3.50
2023-02-09T04:16:12.429Z,-3.50
2023-02-09T04:18:40.623Z,-3.60
2023-02-09T04:21:08.913Z,-3.70
2023-02-09T04:23:37.217Z,-3.70
2023-02-09T04:26:07.683Z,-3.80
2023-02-09T04:28:36.250Z,-3.80
2023-02-09T04:31:05.733Z,-3.90
2023-02-09T04:33:33.851Z,-3.90
2023-02-09T04:36:02.199Z,-3.90
2023-02-09T04:38:30.871Z,-3.80
2023-02-09T04:41:02.007Z,-3.80
2023-02-09T04:43:32.713Z,-3.80
2023-02-09T04:46:01.826Z,-3.80
2023-02-09T04:48:31.156Z,-3.90
2023-02-09T04:50:59.591Z,-4.00
2023-02-09T04:56:18.297Z,-4.10
2023-02-09T04:59:05.412Z,-4.10
2023-02-09T05:01:35.524Z,-4.10
2023-02-09T05:04:04.298Z,-4.10
2023-02-09T05:06:32.259Z,-4.10
2023-02-09T05:09:00.626Z,-4.20
2023-02-09T05:11:29.891Z,-4.10
2023-02-09T05:13:59.371Z,-4.00
2023-02-09T05:16:27.401Z,-4.00
2023-02-09T05:18:55.885Z,-3.90
2023-02-09T05:21:23.994Z,-3.90
2023-02-09T05:23:52.403Z,-3.90
2023-02-09T05:26:20.404Z,-3.90
2023-02-09T05:28:48.419Z,-3.80
2023-02-09T05:31:18.229Z,-3.90
2023-02-09T05:33:46.928Z,-3.90
2023-02-09T05:36:15.333Z,-3.80
2023-02-09T05:38:43.380Z,-3.90
2023-02-09T05:41:35.149Z,-3.90
2023-02-09T05:44:03.852Z,-3.90
2023-02-09T05:46:33.666Z,-3.90
2023-02-09T05:49:02.072Z,-3.90
2023-02-09T05:51:30.176Z,-3.90
2023-02-09T05:54:01.737Z,-3.90
2023-02-09T05:56:30.289Z,-3.90
2023-02-09T05:58:58.417Z,-3.90
2023-02-09T06:01:26.370Z,-3.90
2023-02-09T06:03:55.792Z,-3.90
2023-02-09T06:06:24.024Z,-3.90
2023-02-09T06:08:52.117Z,-3.90
2023-02-09T06:11:20.211Z,-4.00
2023-02-09T06:13:49.360Z,-4.00
2023-02-09T06:16:18.513Z,-4.00
2023-02-09T06:18:46.686Z,-4.00
2023-02-09T06:21:16.421Z,-4.00
2023-02-09T06:23:45.017Z,-4.00
2023-02-09T06:26:15.932Z,-4.00
2023-02-09T06:28:44.552Z,-4.00
2023-02-09T06:31:13.157Z,-4.10
2023-02-09T06:33:41.507Z,-4.10
2023-02-09T06:36:11.581Z,-4.20
2023-02-09T06:38:41.034Z,-4.20
2023-02-09T06:41:08.973Z,-4.20
2023-02-09T06:43:37.079Z,-4.20
2023-02-09T06:46:28.523Z,-4.20
2023-02-09T06:48:57.633Z,-4.10
2023-02-09T06:51:28.159Z,-4.20
2023-02-09T06:53:57.672Z,-4.20
2023-02-09T06:56:26.053Z,-4.10
2023-02-09T06:58:54.194Z,-4.20
2023-02-09T07:01:22.521Z,-4.10
2023-02-09T07:03:50.566Z,-4.10
2023-02-09T07:06:21.745Z,-4.00
2023-02-09T07:08:51.156Z,-4.00
2023-02-09T07:11:21.606Z,-3.90
2023-02-09T07:13:49.774Z,-3.80
2023-02-09T07:16:18.049Z,-3.70
2023-02-09T07:18:46.027Z,-3.70
2023-02-09T07:21:18.618Z,-3.60
2023-02-09T07:23:47.694Z,-3.60
2023-02-09T07:26:17.499Z,-3.60
2023-02-09T07:29:08.444Z,-3.50
2023-02-09T07:31:36.846Z,-3.40
2023-02-09T07:34:04.909Z,-3.40
2023-02-09T07:36:33.470Z,-3.30
2023-02-09T07:39:02.855Z,-3.20
2023-02-09T07:41:31.706Z,-3.10
2023-02-09T07:43:59.775Z,-3.10
2023-02-09T07:46:29.282Z,-3.10
2023-02-09T07:48:59.489Z,-3.00
2023-02-09T07:51:31.805Z,-2.90
2023-02-09T07:54:01.978Z,-2.90
2023-02-09T07:56:31.068Z,-2.90
2023-02-09T07:58:59.036Z,-2.80
2023-02-09T08:01:29.316Z,-2.70
2023-02-09T08:03:57.595Z,-2.70
2023-02-09T08:06:41.419Z,-2.60
2023-02-09T08:09:12.315Z,-2.50
2023-02-09T08:11:47.057Z,-2.50
2023-02-09T08:14:19.353Z,-2.40
2023-02-09T08:16:50.668Z,-2.40
2023-02-09T08:19:23.917Z,-2.30
2023-02-09T08:21:52.537Z,-2.30
2023-02-09T08:24:22.549Z,-2.20
2023-02-09T08:26:51.102Z,-2.20
2023-02-09T08:29:19.632Z,-2.20
2023-02-09T08:31:49.742Z,-2.20
2023-02-09T08:34:17.825Z,-2.10
2023-02-09T08:36:45.990Z,-2.00
2023-02-09T08:39:14.194Z,-1.90
2023-02-09T08:41:43.744Z,-1.90
2023-02-09T08:44:13.958Z,-1.80
2023-02-09T08:46:42.241Z,-1.70
2023-02-09T08:49:13.105Z,-1.60
2023-02-09T08:51:41.131Z,-1.60
2023-02-09T08:54:10.313Z,-1.50
2023-02-09T08:56:38.774Z,-1.50
2023-02-09T08:59:07.593Z,-1.40
2023-02-09T09:01:35.648Z,-1.30
2023-02-09T09:04:03.762Z,-1.30
2023-02-09T09:06:34.302Z,-1.20
2023-02-09T09:09:02.248Z,-1.20
2023-02-09T09:11:31.083Z,-1.10
2023-02-09T09:13:59.729Z,-1.00
2023-02-09T09:16:30.014Z,-0.90
2023-02-09T09:18:58.422Z,-0.90
2023-02-09T09:21:27.402Z,-0.90
2023-02-09T09:23:56.817Z,-0.80
2023-02-09T09:26:25.902Z,-0.80
2023-02-09T09:28:54.473Z,-0.70
2023-02-09T09:31:22.746Z,-0.60
2023-02-09T09:33:50.857Z,-0.60
2023-02-09T09:36:21.178Z,-0.50
2023-02-09T09:38:49.446Z,-0.40
2023-02-09T09:41:27.142Z,-0.40
2023-02-09T09:43:56.187Z,-0.30
2023-02-09T09:46:36.592Z,-0.30
2023-02-09T09:49:05.882Z,-0.30
2023-02-09T09:51:39.995Z,-0.20
2023-02-09T09:54:14.028Z,-0.20
2023-02-09T09:56:43.434Z,-0.10
2023-02-09T09:59:17.553Z,-0.10
2023-02-09T10:01:46.401Z,0.00
2023-02-09T10:04:16.527Z,0.00
2023-02-09T10:06:48.708Z,0.00
2023-02-09T10:09:27.038Z,0.10
2023-02-09T10:12:06.192Z,0.20
2023-02-09T10:14:56.186Z,0.30
2023-02-09T10:17:25.425Z,0.30
2023-02-09T10:20:04.969Z,0.30
2023-02-09T10:22:32.969Z,0.50
2023-02-09T10:25:02.532Z,0.50
2023-02-09T10:27:33.462Z,0.60
2023-02-09T10:30:20.109Z,0.60
2023-02-09T10:32:48.631Z,0.70
2023-02-09T10:35:28.709Z,0.80
2023-02-09T10:38:01.728Z,0.90
2023-02-09T10:40:33.674Z,0.90
2023-02-09T10:43:05.287Z,1.00
2023-02-09T10:45:38.903Z,1.00
2023-02-09T10:48:18.742Z,1.10
2023-02-09T10:50:52.146Z,1.10
2023-02-09T10:53:24.446Z,1.10
2023-02-09T10:55:59.207Z,1.20
2023-02-09T10:58:30.879Z,1.20
2023-02-09T11:01:14.515Z,1.30
2023-02-09T11:03:59.803Z,1.40
2023-02-09T11:06:28.678Z,1.40
2023-02-09T11:09:03.302Z,1.40
2023-02-09T11:11:33.781Z,1.50
2023-02-09T11:14:04.171Z,1.50
2023-02-09T11:16:55.506Z,1.50
2023-02-09T11:19:45.241Z,1.60
2023-02-09T11:23:20.466Z,1.60
2023-02-09T11:25:55.986Z,1.70
2023-02-09T11:28:35.419Z,1.80
2023-02-09T11:31:30.884Z,1.80
2023-02-09T11:34:06.746Z,1.90
2023-02-09T11:36:48.209Z,1.90
2023-02-09T11:39:23.136Z,1.90
2023-02-09T11:42:15.789Z,2.00
2023-02-09T11:44:48.945Z,2.10
2023-02-09T11:47:24.454Z,2.10
2023-02-09T11:49:55.458Z,2.20
2023-02-09T11:52:29.531Z,2.20
2023-02-09T11:55:02.030Z,2.20
2023-02-09T11:57:35.656Z,2.20
2023-02-09T12:00:08.605Z,2.30
2023-02-09T12:02:53.729Z,2.30
2023-02-09T12:05:23.549Z,2.40
2023-02-09T12:08:15.936Z,2.50
2023-02-09T12:10:50.166Z,2.60
2023-02-09T12:13:32.612Z,2.60
2023-02-09T12:16:04.016Z,2.60
2023-02-09T12:18:37.345Z,2.60
2023-02-09T12:21:07.567Z,2.60
2023-02-09T12:23:37.833Z,2.70
2023-02-09T12:26:28.658Z,2.70
2023-02-09T12:29:04.975Z,2.70
2023-02-09T12:32:11.294Z,2.80
2023-02-09T12:34:44.776Z,2.80
2023-02-09T12:37:28.707Z,2.80
2023-02-09T12:40:25.194Z,2.80
2023-02-09T12:43:15.276Z,2.80
2023-02-09T12:45:45.473Z,2.90
2023-02-09T12:48:34.367Z,2.90
2023-02-09T12:51:03.871Z,2.90
2023-02-09T12:53:51.752Z,2.90
2023-02-09T12:56:32.742Z,3.00
2023-02-09T12:59:21.449Z,2.90
2023-02-09T13:02:25.583Z,3.00
2023-02-09T13:05:02.736Z,3.00
2023-02-09T13:07:46.018Z,3.00
2023-02-09T13:10:28.827Z,3.00
2023-02-09T13:13:03.628Z,3.00
2023-02-09T13:15:46.898Z,3.00
2023-02-09T13:18:21.041Z,3.00
2023-02-09T13:21:16.530Z,3.10
2023-02-09T13:23:55.926Z,3.10
2023-02-09T13:26:26.420Z,3.10
2023-02-09T13:29:19.872Z,3.10
2023-02-09T13:31:59.452Z,3.10
2023-02-09T13:34:42.214Z,3.00
2023-02-09T13:37:27.960Z,3.00
2023-02-09T13:40:03.593Z,3.00
2023-02-09T13:42:37.079Z,2.90
2023-02-09T13:45:18.641Z,2.90
2023-02-09T13:47:47.625Z,3.00
2023-02-09T13:50:18.424Z,2.90
2023-02-09T13:52:46.948Z,3.00
2023-02-09T13:55:22.114Z,3.00
2023-02-09T13:57:54.774Z,2.90
2023-02-09T14:00:46.401Z,2.90
2023-02-09T14:03:18.929Z,2.90
2023-02-09T14:05:52.271Z,2.80
2023-02-09T14:08:22.192Z,2.80
2023-02-09T14:10:59.447Z,2.80
2023-02-09T14:13:31.973Z,2.80
2023-02-09T14:16:11.103Z,2.80
2023-02-09T14:18:48.766Z,2.70
2023-02-09T14:21:22.863Z,2.70
2023-02-09T14:24:15.725Z,2.60
2023-02-09T14:26:53.372Z,2.60
2023-02-09T14:29:25.986Z,2.60
2023-02-09T14:31:57.058Z,2.60
2023-02-09T14:34:31.406Z,2.50
2023-02-09T14:37:02.166Z,2.50
2023-02-09T14:39:32.734Z,2.40
2023-02-09T14:42:18.239Z,2.50
2023-02-09T14:44:49.795Z,2.40
2023-02-09T14:47:30.538Z,2.40
2023-02-09T14:49:59.937Z,2.30
2023-02-09T14:52:31.486Z,2.30
2023-02-09T14:55:03.171Z,2.30
2023-02-09T15:00:29.333Z,2.20
2023-02-09T15:03:00.176Z,2.20
2023-02-09T15:05:30.756Z,2.20
2023-02-09T15:08:08.051Z,2.20
2023-02-09T15:10:40.428Z,2.20
2023-02-09T15:13:12.197Z,2.10
2023-02-09T15:15:40.761Z,2.00
2023-02-09T15:18:18.762Z,2.00
2023-02-09T15:20:47.873Z,2.00
2023-02-09T15:23:16.531Z,2.00
2023-02-09T15:25:45.315Z,1.90
2023-02-09T15:28:24.548Z,1.90
2023-02-09T15:30:52.756Z,1.90
2023-02-09T15:33:20.974Z,1.80
2023-02-09T15:35:50.550Z,1.80
2023-02-09T15:38:20.244Z,1.80
2023-02-09T15:41:07.753Z,1.70
2023-02-09T15:43:54.951Z,1.70
2023-02-09T15:46:52.881Z,1.60
2023-02-09T15:49:21.769Z,1.60
2023-02-09T15:51:53.326Z,1.60
2023-02-09T15:54:24.738Z,1.60
2023-02-09T15:56:52.769Z,1.50
2023-02-09T15:59:23.837Z,1.50
2023-02-09T16:01:52.459Z,1.30
2023-02-09T16:04:20.847Z,1.20
2023-02-09T16:06:51.962Z,1.10
2023-02-09T16:09:22.733Z,1.00
2023-02-09T16:11:50.926Z,0.90
2023-02-09T16:14:24.107Z,0.80
2023-02-09T16:16:53.528Z,0.70
2023-02-09T16:19:22.309Z,0.60
2023-02-09T16:21:53.859Z,0.60
2023-02-09T16:24:27.442Z,0.50
2023-02-09T16:26:55.576Z,0.40
2023-02-09T16:29:25.930Z,0.40
2023-02-09T16:31:54.174Z,0.30
2023-02-09T16:34:22.346Z,0.30
2023-02-09T16:36:50.927Z,0.30
2023-02-09T16:39:20.305Z,0.20
2023-02-09T16:41:51.017Z,0.10
2023-02-09T16:44:21.636Z,0.10
2023-02-09T16:46:55.872Z,0.00
2023-02-09T16:49:36.100Z,-0.10
2023-02-09T16:52:07.837Z,-0.10
2023-02-09T16:54:42.523Z,-0.20
2023-02-09T16:57:15.936Z,-0.20
2023-02-09T16:59:44.313Z,-0.30
2023-02-09T17:02:36.201Z,-0.40
2023-02-09T17:05:16.251Z,-0.40
2023-02-09T17:07:54.086Z,-0.50
2023-02-09T17:10:26.712Z,-0.50
2023-02-09T17:12:54.665Z,-0.60
2023-02-09T17:15:30.703Z,-0.60
2023-02-09T17:18:04.200Z,-0.60
2023-02-09T17:20:37.828Z,-0.60
2023-02-09T17:23:05.794Z,-0.70
2023-02-09T17:25:34.235Z,-0.70
2023-02-09T17:28:03.018Z,-0.70
2023-02-09T17:30:33.757Z,-0.70
2023-02-09T17:33:06.331Z,-0.70
2023-02-09T17:36:09.934Z,-0.70
2023-02-09T17:38:29.889Z,-0.80
2023-02-09T17:41:00.293Z,-0.80
2023-02-09T17:43:29.252Z,-0.80
2023-02-09T17:45:59.852Z,-0.90
2023-02-09T17:48:30.121Z,-1.00
2023-02-09T17:51:00.291Z,-1.00
2023-02-09T17:53:33.593Z,-1.10
2023-02-09T17:56:02.913Z,-1.00
2023-02-09T17:58:30.881Z,-1.10
2023-02-09T18:00:59.230Z,-1.10
2023-02-09T18:03:28.507Z,-1.10
2023-02-09T18:06:01.737Z,-1.20
2023-02-09T18:08:31.838Z,-1.20
2023-02-09T18:10:59.804Z,-1.20
2023-02-09T18:13:28.403Z,-1.30
2023-02-09T18:15:56.845Z,-1.30
2023-02-09T18:18:24.944Z,-1.30
2023-02-09T18:20:53.665Z,-1.40
2023-02-09T18:23:23.753Z,-1.40
2023-02-09T18:25:52.633Z,-1.40
2023-02-09T18:28:20.844Z,-1.50
2023-02-09T18:30:48.912Z,-1.50
2023-02-09T18:33:17.379Z,-1.60
2023-02-09T18:35:46.567Z,-1.60
2023-02-09T18:38:16.448Z,-1.60
2023-02-09T18:40:45.998Z,-1.60
2023-02-09T18:43:15.675Z,-1.60
2023-02-09T18:45:44.259Z,-1.60
2023-02-09T18:48:12.846Z,-1.70
2023-02-09T18:50:41.710Z,-1.70
2023-02-09T18:53:12.702Z,-1.70
2023-02-09T18:55:40.723Z,-1.80
2023-02-09T18:58:10.235Z,-1.80
2023-02-09T19:00:38.440Z,-1.80
2023-02-09T19:03:06.533Z,-1.80
2023-02-09T19:05:34.784Z,-1.90
2023-02-09T19:08:03.771Z,-1.90
2023-02-09T19:10:33.305Z,-1.90
2023-02-09T19:13:03.210Z,-1.90
2023-02-09T19:15:33.430Z,-2.00
2023-02-09T19:18:01.943Z,-2.00
2023-02-09T19:20:31.948Z,-2.00
2023-02-09T19:22:59.993Z,-2.00
2023-02-09T19:25:29.651Z,-2.00
2023-02-09T19:27:58.897Z,-2.10
2023-02-09T19:30:28.551Z,-2.10
2023-02-09T19:32:59.942Z,-2.10
2023-02-09T19:35:29.303Z,-2.20
2023-02-09T19:37:59.273Z,-2.20
2023-02-09T19:40:36.293Z,-2.20
2023-02-09T19:43:06.035Z,-2.20
2023-02-09T19:45:41.538Z,-2.20
2023-02-09T19:48:12.627Z,-2.20
2023-02-09T19:50:40.746Z,-2.30
2023-02-09T19:53:12.895Z,-2.30
2023-02-09T19:55:49.431Z,-2.30
2023-02-09T19:58:21.978Z,-2.30
2023-02-09T20:00:54.908Z,-2.30
2023-02-09T20:03:30.524Z,-2.30
2023-02-09T20:06:03.812Z,-2.30
2023-02-09T20:08:34.749Z,-2.40
2023-02-09T20:11:07.045Z,-2.40
2023-02-09T20:13:35.701Z,-2.40
2023-02-09T20:16:08.844Z,-2.50
2023-02-09T20:18:38.574Z,-2.50
2023-02-09T20:21:09.837Z,-2.50
2023-02-09T20:23:39.055Z,-2.50
2023-02-09T20:26:11.648Z,-2.50
2023-02-09T20:28:39.818Z,-2.50
2023-02-09T20:31:10.726Z,-2.50
2023-02-09T20:33:40.615Z,-2.50
2023-02-09T20:36:11.030Z,-2.60
2023-02-09T20:38:39.239Z,-2.60
2023-02-09T20:41:09.222Z,-2.60
2023-02-09T20:43:55.374Z,-2.60
2023-02-09T20:46:55.100Z,-2.60
2023-02-09T20:49:29.477Z,-2.60
2023-02-09T20:51:57.908Z,-2.60
2023-02-09T20:54:27.454Z,-2.70
2023-02-09T20:56:55.416Z,-2.70
2023-02-09T20:59:26.814Z,-2.70
2023-02-09T21:01:55.030Z,-2.70
2023-02-09T21:04:26.503Z,-2.70
2023-02-09T21:06:55.017Z,-2.80
2023-02-09T21:09:29.333Z,-2.80
2023-02-09T21:12:00.903Z,-2.80
2023-02-09T21:14:41.564Z,-2.80
2023-02-09T21:17:11.078Z,-2.80
2023-02-09T21:19:40.718Z,-2.70
2023-02-09T21:22:08.927Z,-2.70
2023-02-09T21:24:38.845Z,-2.70
2023-02-09T21:27:07.320Z,-2.70
2023-02-09T21:29:38.067Z,-2.60
2023-02-09T21:32:07.999Z,-2.60
2023-02-09T21:34:36.168Z,-2.60
2023-02-09T21:37:07.886Z,-2.60
2023-02-09T21:39:36.199Z,-2.60
2023-02-09T21:42:21.892Z,-2.70
2023-02-09T21:44:49.991Z,-2.70
2023-02-09T21:47:18.981Z,-2.70
2023-02-09T21:49:47.045Z,-2.70
2023-02-09T21:52:16.666Z,-2.70
2023-02-09T21:54:44.999Z,-2.70
2023-02-09T21:57:12.958Z,-2.70
2023-02-09T21:59:41.812Z,-2.70
2023-02-09T22:02:13.959Z,-2.70
2023-02-09T22:04:42.172Z,-2.70
2023-02-09T22:07:10.503Z,-2.70
2023-02-09T22:09:40.156Z,-2.70
2023-02-09T22:12:08.850Z,-2.80
2023-02-09T22:14:37.841Z,-2.80
2023-02-09T22:17:05.807Z,-2.80
2023-02-09T22:19:33.769Z,-2.90
2023-02-09T22:22:02.014Z,-2.90
2023-02-09T22:24:34.578Z,-2.90
2023-02-09T22:27:05.111Z,-2.90
2023-02-09T22:29:34.502Z,-2.90
2023-02-09T22:32:02.482Z,-2.90
2023-02-09T22:34:52.701Z,-2.90
2023-02-09T22:37:20.644Z,-3.00
2023-02-09T22:39:48.644Z,-2.90
2023-02-09T22:42:17.979Z,-2.90
2023-02-09T22:44:46.443Z,-3.00
2023-02-09T22:47:14.922Z,-2.90
2023-02-09T22:49:46.949Z,-3.00
2023-02-09T22:52:14.913Z,-3.10
2023-02-09T22:54:42.823Z,-3.10
2023-02-09T22:57:11.630Z,-3.10
2023-02-09T22:59:41.674Z,-3.10
2023-02-09T23:02:12.156Z,-3.10
2023-02-09T23:04:40.824Z,-3.10
2023-02-09T23:07:09.189Z,-3.20
2023-02-09T23:09:37.318Z,-3.20
2023-02-09T23:12:05.943Z,-3.30
2023-02-09T23:14:34.888Z,-3.30
2023-02-09T23:17:04.345Z,-3.20
2023-02-09T23:19:32.338Z,-3.30
2023-02-09T23:22:00.727Z,-3.20
2023-02-09T23:24:29.426Z,-3.20
2023-02-09T23:26:57.803Z,-3.30
2023-02-09T23:29:26.803Z,-3.30
2023-02-09T23:31:55.139Z,-3.20
2023-02-09T23:34:24.580Z,-3.20
2023-02-09T23:36:54.971Z,-3.30
2023-02-09T23:39:25.653Z,-3.30
2023-02-09T23:41:53.944Z,-3.30
2023-02-09T23:44:21.906Z,-3.40
2023-02-09T23:46:50.699Z,-3.50
2023-02-09T23:49:18.705Z,-3.40
2023-02-09T23:51:48.817Z,-3.50
2023-02-09T23:54:17.033Z,-3.50
2023-02-09T23:56:46.682Z,-3.50
2023-02-09T23:59:16.867Z,-3.40
